Time;durP1;ratioP1;P1;durP2;ratioP2;P2;SDS_P1;SDS_P2;PMS_P1;PMS_P2;Temp;Humidity;BMP_temperature;BMP_pressure;BME280_temperature;BME280_humidity;BME280_pressure;Samples;Min_cycle;Max_cycle;Signal;HPM_P1;HPM_P2
2021/10/09 00:00:41;;;;;;;20.65;13.02;;;14.00;99.90;;;;;;4122852;28;20034;-73
2021/10/09 00:02:41;;;;;;;19.90;13.55;;;14.00;99.90;;;;;;4137122;28;20030;-72
2021/10/09 00:04:42;;;;;;;20.23;13.80;;;13.90;99.90;;;;;;4134135;28;20129;-72
2021/10/09 00:06:43;;;;;;;20.35;14.00;;;13.90;99.90;;;;;;4135593;28;20046;-72
2021/10/09 00:08:44;;;;;;;19.48;13.63;;;13.80;99.90;;;;;;4126731;28;20467;-72
2021/10/09 00:10:46;;;;;;;21.83;14.75;;;13.80;99.90;;;;;;4135057;28;20113;-72
2021/10/09 00:12:46;;;;;;;26.38;15.63;;;13.70;99.90;;;;;;4140549;28;20074;-72
2021/10/09 00:14:47;;;;;;;19.70;14.02;;;13.60;99.90;;;;;;4138277;28;20037;-72
2021/10/09 00:16:47;;;;;;;25.42;14.48;;;13.50;99.90;;;;;;4131405;28;20497;-72
2021/10/09 00:18:48;;;;;;;22.70;14.02;;;13.40;99.90;;;;;;4129676;28;20178;-72
2021/10/09 00:20:49;;;;;;;22.60;13.80;;;13.30;99.90;;;;;;4130887;28;20047;-72
2021/10/09 00:22:49;;;;;;;20.92;14.52;;;13.30;99.90;;;;;;4134112;28;20030;-72
2021/10/09 00:24:51;;;;;;;21.35;14.20;;;13.20;99.90;;;;;;4127092;28;20030;-72
2021/10/09 00:26:51;;;;;;;21.93;14.23;;;13.20;99.90;;;;;;4136939;28;20046;-72
2021/10/09 00:28:52;;;;;;;21.20;14.85;;;13.10;99.90;;;;;;4131211;28;20049;-72
2021/10/09 00:30:53;;;;;;;24.25;15.70;;;13.10;99.90;;;;;;4134027;28;20033;-72
2021/10/09 00:32:53;;;;;;;24.17;15.82;;;13.10;99.90;;;;;;4130707;28;20034;-72
2021/10/09 00:34:54;;;;;;;24.90;16.05;;;13.10;99.90;;;;;;4131568;28;20062;-72
2021/10/09 00:36:54;;;;;;;23.85;16.52;;;13.00;99.90;;;;;;4135441;28;20053;-72
2021/10/09 00:38:55;;;;;;;27.20;17.73;;;13.00;99.90;;;;;;4135511;28;20064;-72
2021/10/09 00:40:55;;;;;;;24.40;16.83;;;12.90;99.90;;;;;;4126068;28;20034;-73
2021/10/09 00:42:56;;;;;;;26.23;17.27;;;12.90;99.90;;;;;;4132873;28;20473;-73
2021/10/09 00:44:57;;;;;;;25.02;16.60;;;12.80;99.90;;;;;;4128935;28;20042;-72
2021/10/09 00:47:00;;;;;;;24.88;16.63;;;12.80;99.90;;;;;;4133610;28;20101;-73
2021/10/09 00:49:01;;;;;;;22.23;15.07;;;12.80;99.90;;;;;;4132473;28;20556;-72
2021/10/09 00:51:04;;;;;;;24.00;15.90;;;12.80;99.90;;;;;;4133943;28;20042;-73
2021/10/09 00:53:05;;;;;;;23.02;15.98;;;12.90;99.90;;;;;;4128650;28;20101;-73
2021/10/09 00:55:06;;;;;;;24.70;16.77;;;12.90;99.90;;;;;;4134186;28;20209;-73
2021/10/09 00:57:09;;;;;;;26.85;16.85;;;12.90;99.90;;;;;;4129167;28;20387;-73
2021/10/09 00:59:10;;;;;;;24.35;16.77;;;12.90;99.90;;;;;;4139189;28;20469;-73
2021/10/09 01:01:11;;;;;;;23.67;16.58;;;12.90;99.90;;;;;;4139365;28;20045;-72
2021/10/09 01:03:12;;;;;;;25.63;16.35;;;12.90;99.90;;;;;;4132725;28;20506;-72
2021/10/09 01:05:12;;;;;;;24.90;16.83;;;12.90;99.90;;;;;;4131870;28;25170;-73
2021/10/09 01:07:13;;;;;;;26.58;17.60;;;12.90;99.90;;;;;;4127168;28;20049;-73
2021/10/09 01:09:13;;;;;;;25.58;16.40;;;12.90;99.90;;;;;;4129522;28;20105;-73
2021/10/09 01:11:14;;;;;;;29.92;17.10;;;12.90;99.90;;;;;;4130045;28;20372;-73
2021/10/09 01:13:15;;;;;;;23.10;15.52;;;12.90;99.90;;;;;;4135679;28;20033;-73
2021/10/09 01:15:21;;;;;;;24.92;16.58;;;12.90;99.90;;;;;;4130640;28;20793;-73
2021/10/09 01:17:22;;;;;;;23.88;16.05;;;12.90;99.90;;;;;;4136287;28;20064;-73
2021/10/09 01:19:22;;;;;;;23.83;16.13;;;12.90;99.90;;;;;;4134136;28;20095;-72
2021/10/09 01:21:24;;;;;;;24.15;16.05;;;12.90;99.90;;;;;;4133300;28;20673;-73
2021/10/09 01:23:25;;;;;;;22.33;15.40;;;12.90;99.90;;;;;;4138032;28;20030;-73
2021/10/09 01:25:25;;;;;;;25.83;16.80;;;13.00;99.90;;;;;;4130200;28;20030;-73
2021/10/09 01:27:26;;;;;;;23.75;16.40;;;13.00;99.90;;;;;;4125374;28;20059;-73
2021/10/09 01:29:26;;;;;;;27.40;18.13;;;13.00;99.90;;;;;;4117463;28;20061;-73
2021/10/09 01:31:27;;;;;;;23.70;15.55;;;13.00;99.90;;;;;;4136940;28;20038;-72
2021/10/09 01:33:27;;;;;;;25.02;16.50;;;13.00;99.90;;;;;;4134309;28;20190;-73
2021/10/09 01:35:28;;;;;;;25.30;17.13;;;13.00;99.90;;;;;;4131379;28;20046;-73
2021/10/09 01:37:42;;;;;;;27.15;16.85;;;13.00;99.90;;;;;;4139308;28;20037;-73
2021/10/09 01:39:47;;;;;;;22.50;15.68;;;13.00;99.90;;;;;;4124209;28;20035;-73
2021/10/09 01:41:49;;;;;;;23.42;15.40;;;13.00;99.90;;;;;;4135857;28;20069;-73
2021/10/09 01:43:50;;;;;;;23.90;15.93;;;13.00;99.90;;;;;;4132292;28;20040;-73
2021/10/09 01:45:51;;;;;;;23.73;16.05;;;13.00;99.90;;;;;;4112195;28;20582;-73
2021/10/09 01:47:52;;;;;;;23.60;16.00;;;13.00;99.90;;;;;;4130090;28;20030;-73
2021/10/09 01:49:52;;;;;;;25.02;16.13;;;13.00;99.90;;;;;;4135363;28;20467;-72
2021/10/09 01:51:53;;;;;;;22.70;15.30;;;13.00;99.90;;;;;;4136507;28;20040;-73
2021/10/09 01:53:54;;;;;;;22.83;15.50;;;13.00;99.90;;;;;;4128895;28;20027;-72
2021/10/09 01:55:55;;;;;;;21.58;13.93;;;13.00;99.90;;;;;;4130547;28;20043;-73
2021/10/09 01:57:55;;;;;;;20.58;14.32;;;13.00;99.90;;;;;;4131123;28;20027;-73
2021/10/09 01:59:56;;;;;;;21.90;15.63;;;13.00;99.90;;;;;;4132113;28;20034;-72
2021/10/09 02:01:57;;;;;;;22.02;15.25;;;13.00;99.90;;;;;;4130460;28;20625;-73
2021/10/09 02:03:57;;;;;;;22.55;14.95;;;13.00;99.90;;;;;;4130021;28;20034;-72
2021/10/09 02:05:58;;;;;;;23.27;15.68;;;13.00;99.90;;;;;;4130237;28;20064;-73
2021/10/09 02:07:59;;;;;;;24.30;16.80;;;13.00;99.90;;;;;;4128028;28;20061;-73
2021/10/09 02:10:00;;;;;;;24.92;16.05;;;13.00;99.90;;;;;;4132210;28;20080;-73
2021/10/09 02:12:00;;;;;;;22.02;15.50;;;13.00;99.90;;;;;;4136721;28;20617;-73
2021/10/09 02:14:08;;;;;;;23.55;15.45;;;13.00;99.90;;;;;;4137110;28;20030;-73
2021/10/09 02:16:51;;;;;;;22.73;15.75;;;13.00;99.90;;;;;;4133415;28;20034;-72
2021/10/09 02:27:43;;;;;;;23.85;15.32;;;12.90;99.90;;;;;;4137616;28;20033;-73
2021/10/09 02:29:44;;;;;;;22.90;15.45;;;12.90;99.90;;;;;;4131839;28;20048;-73
2021/10/09 02:31:45;;;;;;;22.67;14.90;;;12.90;99.90;;;;;;4110007;28;20557;-73
2021/10/09 02:33:45;;;;;;;24.23;15.60;;;12.90;99.90;;;;;;4127011;28;20573;-72
2021/10/09 02:35:47;;;;;;;25.67;15.02;;;12.90;99.90;;;;;;4133092;28;20045;-73
2021/10/09 02:37:47;;;;;;;18.45;13.45;;;12.80;99.90;;;;;;4127358;28;20028;-73
2021/10/09 02:39:48;;;;;;;20.20;12.77;;;12.80;99.90;;;;;;4130560;28;20552;-73
2021/10/09 02:41:49;;;;;;;15.77;11.52;;;12.80;99.90;;;;;;4133415;28;20040;-73
2021/10/09 02:43:50;;;;;;;14.95;10.95;;;12.80;99.90;;;;;;4128960;28;20026;-73
2021/10/09 02:45:50;;;;;;;16.52;11.18;;;12.80;99.90;;;;;;4126524;28;20035;-73
2021/10/09 02:47:51;;;;;;;16.60;11.00;;;12.80;99.90;;;;;;4128518;28;20117;-73
2021/10/09 02:49:51;;;;;;;16.75;11.27;;;12.70;99.90;;;;;;4130254;28;20033;-73
2021/10/09 02:51:52;;;;;;;18.45;11.63;;;12.70;99.90;;;;;;4131177;28;20034;-73
2021/10/09 02:53:52;;;;;;;19.58;13.10;;;12.70;99.90;;;;;;4125844;28;20089;-73
2021/10/09 02:55:53;;;;;;;18.10;13.05;;;12.70;99.90;;;;;;4136650;28;20050;-73
2021/10/09 02:57:53;;;;;;;19.10;13.43;;;12.60;99.90;;;;;;4128385;28;20125;-73
2021/10/09 02:59:54;;;;;;;18.30;12.88;;;12.60;99.90;;;;;;4132737;28;20570;-73
2021/10/09 03:01:54;;;;;;;18.30;13.43;;;12.60;99.90;;;;;;4129733;28;20050;-73
2021/10/09 03:03:55;;;;;;;19.08;13.07;;;12.60;99.90;;;;;;4135695;28;20049;-73
2021/10/09 03:05:56;;;;;;;19.40;13.25;;;12.60;99.90;;;;;;4126537;28;20518;-73
2021/10/09 03:07:56;;;;;;;18.45;12.75;;;12.70;99.90;;;;;;4124216;28;20403;-73
2021/10/09 03:09:57;;;;;;;20.08;13.20;;;12.70;99.90;;;;;;4137019;28;20661;-73
2021/10/09 03:11:58;;;;;;;19.92;12.90;;;12.60;99.90;;;;;;4134468;28;20034;-73
2021/10/09 03:13:58;;;;;;;22.25;14.27;;;12.70;99.90;;;;;;4130276;28;20038;-73
2021/10/09 03:15:59;;;;;;;21.00;14.68;;;12.70;99.90;;;;;;4131774;28;20044;-73
2021/10/09 03:18:00;;;;;;;20.77;13.55;;;12.70;99.90;;;;;;4129645;28;20030;-73
2021/10/09 03:20:00;;;;;;;20.77;13.52;;;12.70;99.90;;;;;;4126996;28;20061;-73
2021/10/09 03:22:01;;;;;;;21.67;14.13;;;12.70;99.90;;;;;;4129244;28;20031;-73
2021/10/09 03:24:01;;;;;;;17.65;12.60;;;12.60;99.90;;;;;;4127211;28;20034;-73
2021/10/09 03:26:04;;;;;;;18.65;13.20;;;12.60;99.90;;;;;;4136197;28;20037;-73
2021/10/09 03:28:05;;;;;;;19.05;12.82;;;12.60;99.90;;;;;;4124215;28;20364;-73
2021/10/09 03:30:07;;;;;;;20.73;12.63;;;12.70;99.90;;;;;;4125993;28;20075;-73
2021/10/09 03:32:08;;;;;;;18.75;12.90;;;12.60;99.90;;;;;;4129526;28;20030;-73
2021/10/09 03:34:08;;;;;;;17.92;12.70;;;12.60;99.90;;;;;;4130540;28;20108;-73
2021/10/09 03:36:09;;;;;;;20.40;14.13;;;12.60;99.90;;;;;;4135739;28;20049;-73
2021/10/09 03:38:10;;;;;;;21.13;13.73;;;12.60;99.90;;;;;;4138347;28;20054;-73
2021/10/09 03:40:14;;;;;;;20.35;13.32;;;12.50;99.90;;;;;;4133137;28;20046;-73
2021/10/09 03:42:31;;;;;;;22.13;14.77;;;12.50;99.90;;;;;;4132248;28;20050;-73
2021/10/09 03:44:36;;;;;;;22.13;14.95;;;12.50;99.90;;;;;;4131472;28;20038;-73
2021/10/09 03:47:00;;;;;;;23.42;14.43;;;12.50;99.90;;;;;;4130994;28;20035;-73
2021/10/09 03:49:08;;;;;;;;;;;12.50;99.90;;;;;;4119649;28;20045;-73
2021/10/09 03:53:29;;;;;;;24.42;15.70;;;12.50;99.90;;;;;;4135962;28;20038;-74
2021/10/09 03:55:31;;;;;;;23.67;15.25;;;12.50;99.90;;;;;;4135541;28;20060;-73
2021/10/09 03:57:31;;;;;;;23.20;14.80;;;12.50;99.90;;;;;;4134175;28;20053;-74
2021/10/09 03:59:32;;;;;;;26.10;14.73;;;12.50;99.90;;;;;;4135315;28;20046;-73
2021/10/09 04:01:33;;;;;;;26.35;15.45;;;12.50;99.90;;;;;;4134669;28;20468;-73
2021/10/09 04:03:33;;;;;;;26.00;16.00;;;12.50;99.90;;;;;;4130351;28;20593;-74
2021/10/09 04:05:34;;;;;;;24.27;15.43;;;12.50;99.90;;;;;;4137584;28;20045;-73
2021/10/09 04:07:35;;;;;;;22.60;15.20;;;12.50;99.90;;;;;;4134065;28;20042;-74
2021/10/09 04:09:35;;;;;;;23.40;15.80;;;12.50;99.90;;;;;;4136349;28;20482;-74
2021/10/09 04:11:36;;;;;;;22.42;14.30;;;12.40;99.90;;;;;;4133393;28;20037;-73
2021/10/09 04:13:36;;;;;;;22.67;15.55;;;12.50;99.90;;;;;;4134901;28;20635;-73
2021/10/09 04:15:37;;;;;;;24.35;15.30;;;12.40;99.90;;;;;;4135693;28;20109;-74
2021/10/09 04:17:37;;;;;;;21.00;14.40;;;12.40;99.90;;;;;;4116090;28;20033;-74
2021/10/09 04:19:39;;;;;;;21.95;14.32;;;12.50;99.90;;;;;;4134941;28;20033;-73
2021/10/09 04:21:39;;;;;;;19.52;12.60;;;12.40;99.90;;;;;;4133597;28;20038;-73
2021/10/09 04:23:40;;;;;;;22.67;13.00;;;12.50;99.90;;;;;;4139647;28;20031;-73
2021/10/09 04:25:40;;;;;;;20.38;13.05;;;12.40;99.90;;;;;;4136611;28;20768;-73
2021/10/09 04:27:41;;;;;;;19.52;13.02;;;12.40;99.90;;;;;;4136419;28;20041;-74
2021/10/09 04:29:42;;;;;;;20.35;13.07;;;12.40;99.90;;;;;;4138002;28;20059;-73
2021/10/09 04:31:43;;;;;;;17.20;12.75;;;12.40;99.90;;;;;;4137584;28;20053;-73
2021/10/09 04:33:43;;;;;;;21.58;13.50;;;12.40;99.90;;;;;;4135920;28;20034;-73
2021/10/09 04:35:44;;;;;;;25.05;14.43;;;12.30;99.90;;;;;;4120690;28;20037;-74
2021/10/09 04:37:44;;;;;;;23.98;15.00;;;12.30;99.90;;;;;;4136814;28;20072;-73
2021/10/09 04:39:45;;;;;;;22.88;14.32;;;12.30;99.90;;;;;;4138840;28;20042;-73
2021/10/09 04:41:46;;;;;;;19.50;13.20;;;12.30;99.90;;;;;;4134146;28;20518;-73
2021/10/09 04:43:46;;;;;;;20.00;13.63;;;12.30;99.90;;;;;;4138257;28;20030;-74
2021/10/09 04:45:47;;;;;;;22.05;14.00;;;12.30;99.90;;;;;;4136708;28;20068;-74
2021/10/09 04:47:47;;;;;;;19.67;13.45;;;12.30;99.90;;;;;;4137956;28;20042;-74
2021/10/09 04:49:48;;;;;;;21.05;13.13;;;12.30;99.90;;;;;;4120097;28;20523;-73
2021/10/09 04:51:49;;;;;;;18.83;13.00;;;12.20;99.90;;;;;;4136693;28;20045;-74
2021/10/09 04:53:49;;;;;;;23.45;13.45;;;12.20;99.90;;;;;;4135833;28;20053;-74
2021/10/09 04:55:50;;;;;;;20.27;14.13;;;12.20;99.90;;;;;;4118524;28;20058;-73
2021/10/09 04:57:52;;;;;;;23.98;15.57;;;12.20;99.90;;;;;;4135589;28;20034;-73
2021/10/09 04:59:53;;;;;;;22.17;14.40;;;12.20;99.90;;;;;;4136292;28;20100;-74
2021/10/09 05:01:54;;;;;;;21.85;14.23;;;12.10;99.90;;;;;;4134794;28;20124;-74
2021/10/09 05:03:54;;;;;;;22.60;15.52;;;12.10;99.90;;;;;;4132842;28;20030;-73
2021/10/09 05:05:55;;;;;;;18.30;12.85;;;12.10;99.90;;;;;;4139703;28;20061;-72
2021/10/09 05:07:56;;;;;;;21.73;14.35;;;12.10;99.90;;;;;;4130312;28;20099;-72
2021/10/09 05:09:56;;;;;;;18.50;13.00;;;12.10;99.90;;;;;;4132843;28;20034;-72
2021/10/09 05:11:57;;;;;;;17.83;11.95;;;12.00;99.90;;;;;;4132859;28;20030;-72
2021/10/09 05:13:57;;;;;;;17.27;11.95;;;12.00;99.90;;;;;;4132127;28;20022;-71
2021/10/09 05:15:58;;;;;;;17.67;11.77;;;12.00;99.90;;;;;;4132694;28;20124;-71
2021/10/09 05:17:59;;;;;;;21.08;12.23;;;12.00;99.90;;;;;;4133610;28;20041;-71
2021/10/09 05:20:00;;;;;;;19.10;13.30;;;12.00;99.90;;;;;;4133331;28;20042;-71
2021/10/09 05:22:01;;;;;;;18.98;12.70;;;12.00;99.90;;;;;;4133095;28;20081;-71
2021/10/09 05:24:01;;;;;;;17.08;12.10;;;12.00;99.90;;;;;;4126197;28;20037;-73
2021/10/09 05:26:04;;;;;;;17.27;11.63;;;11.90;99.90;;;;;;4139075;28;20040;-73
2021/10/09 05:28:07;;;;;;;;;;;11.90;99.90;;;;;;4121732;28;20022;-72
2021/10/09 05:30:11;;;;;;;12.18;8.95;;;11.90;99.90;;;;;;4138672;28;20505;-72
2021/10/09 05:32:12;;;;;;;15.68;9.68;;;11.90;99.90;;;;;;4149309;28;20103;-72
2021/10/09 05:34:13;;;;;;;16.02;10.60;;;11.80;99.90;;;;;;4144695;28;20445;-73
2021/10/09 05:36:13;;;;;;;17.35;10.93;;;11.80;99.90;;;;;;4139612;28;20038;-73
2021/10/09 05:38:15;;;;;;;16.73;10.68;;;11.80;99.90;;;;;;4133821;28;20034;-73
2021/10/09 05:40:15;;;;;;;18.08;11.95;;;11.80;99.90;;;;;;4133448;28;20054;-73
2021/10/09 05:42:16;;;;;;;20.25;13.10;;;11.70;99.90;;;;;;4137281;28;20045;-72
2021/10/09 05:44:17;;;;;;;19.27;11.98;;;11.80;99.90;;;;;;4137010;28;20038;-73
2021/10/09 05:46:18;;;;;;;18.52;11.77;;;11.80;99.90;;;;;;4134528;28;20157;-73
2021/10/09 05:48:19;;;;;;;19.87;10.40;;;11.80;99.90;;;;;;4135346;28;20058;-72
2021/10/09 05:50:24;;;;;;;15.82;10.35;;;11.80;99.90;;;;;;4139228;28;20045;-73
2021/10/09 05:52:37;;;;;;;22.25;11.00;;;11.80;99.90;;;;;;4134523;28;20239;-73
2021/10/09 05:55:07;;;;;;;15.50;10.75;;;11.80;99.90;;;;;;4128336;28;20122;-73
2021/10/09 05:57:12;;;;;;;14.15;9.48;;;11.70;99.90;;;;;;4126987;28;20031;-73
2021/10/09 06:31:50;;;;;;;28.92;16.00;;;11.60;99.90;;;;;;4127088;28;20060;-71
2021/10/09 06:49:39;;;;;;;22.52;15.18;;;11.70;99.90;;;;;;4135150;28;20030;-72
2021/10/09 07:01:04;;;;;;;21.48;14.07;;;11.80;99.90;;;;;;4138809;28;20761;-73
2021/10/09 07:03:05;;;;;;;22.70;14.85;;;11.80;99.90;;;;;;4128505;28;20037;-73
2021/10/09 07:05:07;;;;;;;21.52;14.48;;;11.80;99.90;;;;;;4142482;28;20030;-73
2021/10/09 07:07:09;;;;;;;22.85;15.60;;;11.80;99.90;;;;;;4130412;28;20113;-73
2021/10/09 07:09:10;;;;;;;24.83;16.63;;;11.90;99.90;;;;;;4128742;28;20500;-73
2021/10/09 07:11:14;;;;;;;24.55;16.63;;;11.90;99.90;;;;;;4138916;28;20026;-73
2021/10/09 07:13:16;;;;;;;25.23;15.95;;;11.90;99.90;;;;;;4140911;28;20104;-73
2021/10/09 07:15:18;;;;;;;26.00;16.30;;;11.90;99.90;;;;;;4137014;28;20037;-73
2021/10/09 07:17:19;;;;;;;25.75;16.70;;;11.90;99.90;;;;;;4134225;28;20073;-73
2021/10/09 07:19:19;;;;;;;28.48;18.05;;;12.00;99.90;;;;;;4146266;28;20489;-73
2021/10/09 07:21:20;;;;;;;27.85;17.30;;;12.00;99.90;;;;;;4138715;28;20118;-73
2021/10/09 07:23:22;;;;;;;27.17;17.55;;;12.10;99.90;;;;;;4137034;28;20054;-73
2021/10/09 07:25:22;;;;;;;28.92;18.67;;;12.10;99.90;;;;;;4138617;28;20054;-73
2021/10/09 07:27:23;;;;;;;29.17;18.80;;;12.10;99.90;;;;;;4136553;28;20122;-73
2021/10/09 07:29:24;;;;;;;28.75;19.52;;;12.10;99.90;;;;;;4128956;28;20065;-73
2021/10/09 07:31:24;;;;;;;32.30;20.48;;;12.10;99.90;;;;;;4140260;28;20048;-73
2021/10/09 07:33:25;;;;;;;29.67;20.08;;;12.10;99.90;;;;;;4139332;28;20037;-73
2021/10/09 07:35:26;;;;;;;38.42;23.33;;;12.10;99.90;;;;;;4141988;28;20098;-73
2021/10/09 07:37:28;;;;;;;35.88;23.55;;;12.10;99.90;;;;;;4140656;28;20030;-73
2021/10/09 07:39:28;;;;;;;38.50;24.17;;;12.10;99.90;;;;;;4139808;28;20044;-73
2021/10/09 07:41:29;;;;;;;39.25;24.83;;;12.20;99.90;;;;;;4138905;28;20390;-73
2021/10/09 07:43:30;;;;;;;38.40;24.20;;;12.20;99.90;;;;;;4139481;28;21248;-73
2021/10/09 07:45:30;;;;;;;41.42;24.95;;;12.20;99.90;;;;;;4144153;28;20034;-73
2021/10/09 07:47:31;;;;;;;36.03;22.85;;;12.30;99.90;;;;;;4137300;28;20034;-73
2021/10/09 07:49:32;;;;;;;35.53;23.63;;;12.50;99.90;;;;;;4139383;28;20038;-73
2021/10/09 07:51:33;;;;;;;37.88;23.33;;;12.70;99.90;;;;;;4123091;28;20057;-73
2021/10/09 07:53:33;;;;;;;32.78;21.85;;;13.00;99.90;;;;;;4140342;28;20518;-73
2021/10/09 07:55:34;;;;;;;33.35;23.50;;;13.30;99.90;;;;;;4139524;28;20117;-73
2021/10/09 07:57:35;;;;;;;34.90;21.75;;;13.50;99.90;;;;;;4142536;28;20615;-73
2021/10/09 07:59:36;;;;;;;33.83;21.17;;;13.80;99.90;;;;;;4135637;28;20045;-73
2021/10/09 08:01:36;;;;;;;32.55;22.33;;;14.20;99.90;;;;;;4137553;28;20054;-73
2021/10/09 08:03:37;;;;;;;36.30;22.90;;;14.40;99.90;;;;;;4140651;28;20034;-73
2021/10/09 08:05:38;;;;;;;33.42;21.85;;;14.70;99.90;;;;;;4135477;28;20095;-73
2021/10/09 08:07:38;;;;;;;34.25;21.60;;;15.00;99.90;;;;;;4122012;28;20687;-73
2021/10/09 08:09:39;;;;;;;37.65;23.27;;;15.20;99.90;;;;;;4141069;28;20084;-72
2021/10/09 08:11:40;;;;;;;38.05;22.35;;;15.40;99.90;;;;;;4103615;28;20027;-73
2021/10/09 08:13:40;;;;;;;29.55;20.20;;;15.50;99.90;;;;;;4127412;28;20088;-73
2021/10/09 08:15:42;;;;;;;32.50;21.33;;;15.70;99.90;;;;;;4140093;28;20034;-73
2021/10/09 08:17:43;;;;;;;37.97;23.20;;;15.80;99.90;;;;;;4142259;28;20560;-73
2021/10/09 08:19:43;;;;;;;33.45;19.92;;;15.70;99.90;;;;;;4146442;28;20041;-73
2021/10/09 08:21:45;;;;;;;35.10;21.38;;;15.70;99.90;;;;;;4125936;28;20038;-73
2021/10/09 08:24:01;;;;;;;29.38;19.70;;;15.70;99.90;;;;;;4130808;28;20096;-72
2021/10/09 08:39:10;;;;;;;28.30;19.05;;;15.90;99.90;;;;;;4136854;28;20046;-73
2021/10/09 08:41:11;;;;;;;32.80;20.35;;;16.00;99.90;;;;;;4137962;28;20092;-73
2021/10/09 08:43:12;;;;;;;27.48;18.27;;;16.10;99.90;;;;;;4137958;28;20037;-72
2021/10/09 08:45:14;;;;;;;27.45;18.60;;;16.10;99.90;;;;;;4139104;28;20034;-73
2021/10/09 08:47:14;;;;;;;30.02;17.92;;;16.20;99.90;;;;;;4137470;28;20046;-72
2021/10/09 08:49:15;;;;;;;28.08;17.90;;;16.30;99.90;;;;;;4137848;28;20041;-73
2021/10/09 08:51:24;;;;;;;27.67;18.02;;;16.30;99.90;;;;;;4135857;28;20034;-73
2021/10/09 08:53:35;;;;;;;27.80;17.63;;;16.40;99.90;;;;;;4137698;28;20026;-72
2021/10/09 08:55:44;;;;;;;30.50;19.25;;;16.50;99.90;;;;;;4138297;28;20042;-72
2021/10/09 08:57:47;;;;;;;28.08;18.92;;;16.40;99.90;;;;;;4136725;28;20153;-72
2021/10/09 08:59:56;;;;;;;26.98;17.83;;;16.50;99.90;;;;;;4137798;28;20045;-73
2021/10/09 09:02:11;;;;;;;25.25;17.60;;;16.50;99.90;;;;;;4136329;28;20042;-73
2021/10/09 09:04:30;;;;;;;28.25;19.55;;;16.50;99.90;;;;;;4130379;28;20033;-72
2021/10/09 09:09:12;;;;;;;30.63;19.25;;;16.50;99.90;;;;;;4138492;28;20037;-73
2021/10/09 09:27:39;;;;;;;28.95;18.23;;;16.40;99.90;;;;;;4140692;28;20072;-73
2021/10/09 09:32:32;;;;;;;26.90;18.08;;;16.40;99.90;;;;;;4138096;28;20046;-73
2021/10/09 09:37:04;;;;;;;27.95;18.38;;;16.40;99.90;;;;;;4135681;28;20042;-73
2021/10/09 09:39:09;;;;;;;26.52;17.20;;;16.50;99.90;;;;;;4127936;28;20066;-72
2021/10/09 09:41:20;;;;;;;30.75;18.90;;;16.50;99.90;;;;;;4136718;28;20034;-72
2021/10/09 09:43:20;;;;;;;30.98;19.05;;;16.50;99.90;;;;;;4132117;28;20088;-73
2021/10/09 09:45:23;;;;;;;33.38;17.58;;;16.50;99.90;;;;;;4140720;28;20069;-72
2021/10/09 09:47:35;;;;;;;27.88;19.10;;;16.60;99.90;;;;;;4123411;28;20049;-72
2021/10/09 09:49:35;;;;;;;28.40;18.17;;;16.70;99.90;;;;;;4121765;28;20035;-72
2021/10/09 09:51:38;;;;;;;28.83;18.52;;;16.60;99.90;;;;;;4127243;28;20034;-73
2021/10/09 09:53:40;;;;;;;;;;;16.80;99.90;;;;;;4143272;28;20529;-72
2021/10/09 09:55:40;;;;;;;27.00;17.23;;;16.80;99.90;;;;;;4138016;28;19914;-72
2021/10/09 09:57:42;;;;;;;28.17;16.60;;;16.70;99.90;;;;;;4141969;28;20398;-73
2021/10/09 09:59:45;;;;;;;26.52;17.02;;;16.70;99.90;;;;;;4140004;28;20034;-73
2021/10/09 10:01:48;;;;;;;25.83;16.58;;;16.80;99.90;;;;;;4136080;28;20129;-73
2021/10/09 10:03:49;;;;;;;27.25;17.08;;;16.90;99.90;;;;;;4141544;28;20063;-72
2021/10/09 10:05:51;;;;;;;29.90;16.38;;;16.90;99.90;;;;;;4141135;28;20037;-72
2021/10/09 10:07:52;;;;;;;24.42;15.93;;;17.00;99.90;;;;;;4142027;28;20528;-73
2021/10/09 10:09:53;;;;;;;21.77;15.60;;;17.00;99.90;;;;;;4140252;28;20038;-72
2021/10/09 10:11:54;;;;;;;26.45;17.00;;;17.10;99.90;;;;;;4140985;28;20547;-72
2021/10/09 10:13:56;;;;;;;24.25;15.32;;;17.20;99.90;;;;;;4130153;28;20028;-73
2021/10/09 10:15:58;;;;;;;22.98;15.95;;;17.20;99.90;;;;;;4136610;28;20030;-72
2021/10/09 10:17:59;;;;;;;22.77;16.10;;;17.30;99.90;;;;;;4142309;28;20062;-72
2021/10/09 10:20:00;;;;;;;24.70;16.02;;;17.30;99.90;;;;;;4141734;28;20470;-72
2021/10/09 10:22:01;;;;;;;24.50;16.40;;;17.30;99.90;;;;;;4125595;28;20475;-72
2021/10/09 10:24:02;;;;;;;24.38;15.65;;;17.40;99.90;;;;;;4138483;28;20073;-72
2021/10/09 10:26:31;;;;;;;28.83;17.35;;;17.40;99.90;;;;;;4145893;28;20508;-72
2021/10/09 10:28:32;;;;;;;33.40;17.70;;;17.30;99.90;;;;;;4139135;28;20112;-72
2021/10/09 10:30:41;;;;;;;24.90;16.30;;;17.20;99.90;;;;;;4138522;28;20501;-72
2021/10/09 10:32:56;;;;;;;23.70;15.70;;;17.20;99.90;;;;;;4132957;28;20034;-72
2021/10/09 10:34:56;;;;;;;24.02;16.40;;;17.20;99.90;;;;;;4141452;28;20022;-72
2021/10/09 10:36:57;;;;;;;24.35;15.60;;;17.20;99.90;;;;;;4123117;28;20524;-73
2021/10/09 10:38:57;;;;;;;23.23;15.55;;;17.20;99.90;;;;;;4132704;28;20053;-72
2021/10/09 10:41:00;;;;;;;30.33;17.75;;;17.20;99.90;;;;;;4121038;28;20034;-72
2021/10/09 10:43:19;;;;;;;;;;;17.20;99.90;;;;;;4132520;28;20034;-72
2021/10/09 10:45:35;;;;;;;23.70;15.65;;;17.20;99.90;;;;;;4141844;28;20019;-72
2021/10/09 10:47:51;;;;;;;25.02;15.93;;;17.20;99.90;;;;;;4123639;28;20031;-72
2021/10/09 10:50:04;;;;;;;26.77;16.60;;;17.20;99.90;;;;;;4135702;28;20045;-72
2021/10/09 10:56:24;;;;;;;28.40;16.17;;;17.20;99.90;;;;;;4137546;28;20394;-72
2021/10/09 10:58:25;;;;;;;26.60;16.23;;;17.30;99.90;;;;;;4129122;28;20038;-72
2021/10/09 11:00:25;;;;;;;24.60;15.68;;;17.30;99.90;;;;;;4134135;28;20054;-72
2021/10/09 11:02:29;;;;;;;24.25;14.25;;;17.30;99.90;;;;;;4134889;28;20042;-72
2021/10/09 11:04:34;;;;;;;24.17;15.35;;;17.30;99.90;;;;;;4154191;28;20037;-72
2021/10/09 11:06:35;;;;;;;21.42;14.70;;;17.40;99.90;;;;;;4136190;28;20418;-73
2021/10/09 11:08:35;;;;;;;28.23;15.77;;;17.40;99.90;;;;;;4138167;28;20034;-72
2021/10/09 11:10:46;;;;;;;28.95;16.77;;;17.50;99.90;;;;;;4138288;28;20084;-72
2021/10/09 11:12:50;;;;;;;23.33;14.20;;;17.50;99.90;;;;;;4135090;28;20045;-73
2021/10/09 11:15:25;;;;;;;20.38;13.88;;;17.60;99.90;;;;;;4135859;28;20655;-72
2021/10/09 11:17:40;;;;;;;22.35;13.68;;;17.60;99.90;;;;;;4129375;28;20415;-72
2021/10/09 11:19:42;;;;;;;24.70;16.08;;;17.60;99.90;;;;;;4139435;28;20037;-72
2021/10/09 11:21:55;;;;;;;23.53;15.50;;;17.50;99.90;;;;;;4119472;28;20039;-73
2021/10/09 11:23:57;;;;;;;21.90;14.80;;;17.60;99.90;;;;;;4128538;28;20034;-73
2021/10/09 11:25:58;;;;;;;24.02;14.95;;;17.60;99.90;;;;;;4129218;28;20042;-72
2021/10/09 11:28:17;;;;;;;23.70;14.05;;;17.70;99.90;;;;;;4128904;28;20022;-72
2021/10/09 11:30:17;;;;;;;22.10;13.85;;;17.70;99.90;;;;;;4131121;28;20062;-72
2021/10/09 11:32:32;;;;;;;27.88;17.65;;;17.70;99.90;;;;;;4130576;28;20088;-73
2021/10/09 11:34:51;;;;;;;27.65;16.23;;;17.70;99.90;;;;;;4142972;28;20037;-72
2021/10/09 11:36:53;;;;;;;28.10;16.05;;;17.70;99.90;;;;;;4140614;28;20030;-72
2021/10/09 11:39:12;;;;;;;25.02;15.77;;;17.60;99.90;;;;;;4142606;28;20096;-72
2021/10/09 11:41:19;;;;;;;26.42;14.88;;;17.70;99.90;;;;;;4135277;28;20038;-72
2021/10/09 11:43:28;;;;;;;25.55;15.02;;;17.70;99.90;;;;;;4146188;28;20700;-72
2021/10/09 11:45:44;;;;;;;23.15;14.43;;;17.80;99.90;;;;;;4145918;28;20034;-72
2021/10/09 11:56:52;;;;;;;27.67;17.05;;;17.90;99.90;;;;;;4133755;28;20026;-73
2021/10/09 11:58:58;;;;;;;25.40;15.65;;;17.90;99.90;;;;;;4143103;28;20056;-72
2021/10/09 12:00:58;;;;;;;23.92;15.63;;;17.90;99.90;;;;;;4134341;28;20109;-72
2021/10/09 12:03:20;;;;;;;29.40;16.35;;;18.00;99.90;;;;;;4138017;28;20041;-72
2021/10/09 12:05:21;;;;;;;21.60;13.63;;;17.90;99.90;;;;;;4129959;28;20057;-72
2021/10/09 12:07:22;;;;;;;22.83;14.48;;;18.00;99.90;;;;;;4138571;28;20094;-72
2021/10/09 12:09:38;;;;;;;23.95;13.85;;;18.00;99.90;;;;;;4158900;28;20033;-72
2021/10/09 12:11:38;;;;;;;24.63;14.55;;;18.10;99.90;;;;;;4130052;28;20180;-72
2021/10/09 12:14:00;;;;;;;28.10;15.82;;;18.10;99.90;;;;;;4147067;28;20038;-72
2021/10/09 12:16:08;;;;;;;22.08;13.48;;;18.10;99.90;;;;;;4131074;28;20058;-72
2021/10/09 12:18:08;;;;;;;22.80;14.80;;;18.20;99.90;;;;;;4138068;28;20023;-72
2021/10/09 12:20:10;;;;;;;21.08;13.93;;;18.10;99.90;;;;;;4139389;28;20570;-72
2021/10/09 12:22:13;;;;;;;24.92;15.85;;;18.10;99.90;;;;;;4141223;28;20042;-73
2021/10/09 12:24:16;;;;;;;27.98;15.90;;;18.00;99.90;;;;;;4136983;28;20071;-72